Terminal Aerodrome Forecast
Issued by NWS St Louis, MO

Home | Current Version | Previous Version | Text Only | Print | Product List | Glossary On
Versions: 1 2 3 4 5 6 7 8 9 10 11 12 13
782
FTUS43 KLSX 071728
TAFCOU
TAF
KCOU 071728Z 0718/0818 32007KT P6SM VCSH OVC050
     FM072300 31008KT P6SM OVC050
     FM080400 31009KT P6SM SCT080
     FM081300 30010G20KT P6SM SKC=

USA.gov is the U.S. government's official web portal to all federal, state and local government web resources and services.